PKGKA WIHH-WAHS
Flight info
| Callsign | PKGKA |
|---|---|
| Flight time | 0h 59m |
| Altitude | 25000 |
| Route | CA W45 PIALA |
| Aircraft | B350/L-SBGRW/S |
Departure
| Time | 2026-04-20 12:07 |
|---|---|
| Airport | Halim Perdanakusuma International Airport (WIHH) |
Arrival
| Time | 2026-04-20 13:07 |
|---|---|
| Airport | Jenderal Ahmad Yani Airport (WAHS) |
| Time | Latitude | Longitude | Altitude | Speed | Heading |
|---|---|---|---|---|---|
| 2026-04-20 11:50 | -6.26504 | 106.88837 | 96 ft | 0 kts | 335° |
| 2026-04-20 11:54 | -6.26504 | 106.88836 | 96 ft | 0 kts | 336° |
| 2026-04-20 12:02 | -6.26499 | 106.88837 | 96 ft | 2 kts | 51° |
| 2026-04-20 12:03 | -6.26523 | 106.88852 | 96 ft | 7 kts | 168° |
| 2026-04-20 12:03 | -6.26570 | 106.88834 | 96 ft | 7 kts | 246° |
| 2026-04-20 12:03 | -6.26602 | 106.88765 | 96 ft | 14 kts | 244° |
| 2026-04-20 12:03 | -6.26645 | 106.88669 | 96 ft | 14 kts | 245° |
| 2026-04-20 12:04 | -6.26692 | 106.88568 | 96 ft | 16 kts | 245° |
| 2026-04-20 12:04 | -6.26740 | 106.88483 | 96 ft | 11 kts | 206° |
| 2026-04-20 12:04 | -6.26814 | 106.88503 | 96 ft | 13 kts | 154° |
| 2026-04-20 12:04 | -6.26909 | 106.88532 | 96 ft | 17 kts | 198° |
| 2026-04-20 12:05 | -6.26980 | 106.88416 | 96 ft | 22 kts | 245° |
| 2026-04-20 12:05 | -6.27051 | 106.88261 | 96 ft | 26 kts | 244° |
| 2026-04-20 12:05 | -6.27133 | 106.88081 | 96 ft | 27 kts | 245° |
| 2026-04-20 12:05 | -6.27179 | 106.87968 | 96 ft | 14 kts | 261° |
| 2026-04-20 12:06 | -6.27202 | 106.87894 | 96 ft | 6 kts | 202° |
| 2026-04-20 12:06 | -6.27206 | 106.87923 | 96 ft | 8 kts | 65° |
| 2026-04-20 12:06 | -6.27109 | 106.88126 | 96 ft | 70 kts | 68° |
| 2026-04-20 12:06 | -6.26810 | 106.88788 | 120 ft | 128 kts | 65° |
| 2026-04-20 12:07 | -6.26425 | 106.89661 | 435 ft | 147 kts | 64° |
| 2026-04-20 12:07 | -6.25958 | 106.90596 | 973 ft | 153 kts | 63° |
| 2026-04-20 12:07 | -6.25594 | 106.91625 | 1423 ft | 165 kts | 87° |
| 2026-04-20 12:07 | -6.25988 | 106.92708 | 1910 ft | 174 kts | 126° |
| 2026-04-20 12:08 | -6.26714 | 106.93671 | 2433 ft | 176 kts | 121° |
| 2026-04-20 12:08 | -6.27378 | 106.94722 | 3010 ft | 178 kts | 119° |
| 2026-04-20 12:08 | -6.27997 | 106.95775 | 3606 ft | 178 kts | 118° |
| 2026-04-20 12:08 | -6.28605 | 106.96843 | 4179 ft | 178 kts | 117° |
| 2026-04-20 12:09 | -6.29211 | 106.97918 | 4725 ft | 178 kts | 117° |
| 2026-04-20 12:09 | -6.29823 | 106.99008 | 5264 ft | 180 kts | 117° |
| 2026-04-20 12:09 | -6.30434 | 107.00101 | 5789 ft | 182 kts | 117° |
| 2026-04-20 12:09 | -6.31060 | 107.01219 | 6358 ft | 183 kts | 117° |
| 2026-04-20 12:10 | -6.31679 | 107.02325 | 6919 ft | 183 kts | 117° |
| 2026-04-20 12:10 | -6.32297 | 107.03430 | 7475 ft | 183 kts | 117° |
| 2026-04-20 12:10 | -6.32919 | 107.04541 | 8011 ft | 183 kts | 117° |
| 2026-04-20 12:10 | -6.33547 | 107.05663 | 8545 ft | 186 kts | 117° |
| 2026-04-20 12:11 | -6.34466 | 107.06567 | 9080 ft | 191 kts | 147° |
| 2026-04-20 12:11 | -6.35649 | 107.07175 | 9638 ft | 192 kts | 150° |
| 2026-04-20 12:11 | -6.36833 | 107.07772 | 10189 ft | 192 kts | 150° |
| 2026-04-20 12:11 | -6.38031 | 107.08379 | 10719 ft | 192 kts | 150° |
| 2026-04-20 12:12 | -6.39222 | 107.08984 | 11217 ft | 193 kts | 149° |
| 2026-04-20 12:12 | -6.40398 | 107.09644 | 11699 ft | 192 kts | 140° |
| 2026-04-20 12:12 | -6.41360 | 107.10545 | 12157 ft | 190 kts | 126° |
| 2026-04-20 12:12 | -6.42052 | 107.11664 | 12616 ft | 189 kts | 111° |
| 2026-04-20 12:13 | -6.42557 | 107.12883 | 13083 ft | 188 kts | 111° |
| 2026-04-20 12:13 | -6.43071 | 107.14080 | 13526 ft | 188 kts | 111° |
| 2026-04-20 12:13 | -6.43595 | 107.15281 | 13943 ft | 189 kts | 112° |
| 2026-04-20 12:13 | -6.44125 | 107.16489 | 14348 ft | 190 kts | 112° |
| 2026-04-20 12:14 | -6.44660 | 107.17705 | 14741 ft | 191 kts | 112° |
| 2026-04-20 12:14 | -6.45196 | 107.18922 | 15128 ft | 191 kts | 112° |
| 2026-04-20 12:14 | -6.45734 | 107.20145 | 15507 ft | 192 kts | 112° |
| 2026-04-20 12:14 | -6.46271 | 107.21363 | 15881 ft | 193 kts | 112° |
| 2026-04-20 12:15 | -6.46813 | 107.22596 | 16262 ft | 193 kts | 112° |
| 2026-04-20 12:15 | -6.47358 | 107.23833 | 16623 ft | 193 kts | 112° |
| 2026-04-20 12:15 | -6.47898 | 107.25060 | 16970 ft | 194 kts | 112° |
| 2026-04-20 12:15 | -6.48444 | 107.26302 | 17302 ft | 195 kts | 112° |
| 2026-04-20 12:16 | -6.48995 | 107.27553 | 17625 ft | 196 kts | 112° |
| 2026-04-20 12:16 | -6.49539 | 107.28788 | 17935 ft | 196 kts | 112° |
| 2026-04-20 12:16 | -6.50098 | 107.30060 | 18248 ft | 197 kts | 112° |
| 2026-04-20 12:16 | -6.50653 | 107.31320 | 18543 ft | 198 kts | 112° |
| 2026-04-20 12:17 | -6.51209 | 107.32583 | 18828 ft | 199 kts | 112° |
| 2026-04-20 12:17 | -6.51772 | 107.33862 | 19118 ft | 200 kts | 113° |
| 2026-04-20 12:17 | -6.52330 | 107.35130 | 19398 ft | 200 kts | 113° |
| 2026-04-20 12:17 | -6.52896 | 107.36416 | 19673 ft | 201 kts | 113° |
| 2026-04-20 12:18 | -6.53462 | 107.37703 | 19940 ft | 201 kts | 113° |
| 2026-04-20 12:18 | -6.54024 | 107.38982 | 20200 ft | 201 kts | 113° |
| 2026-04-20 12:18 | -6.54594 | 107.40276 | 20446 ft | 202 kts | 113° |
| 2026-04-20 12:18 | -6.55163 | 107.41571 | 20676 ft | 203 kts | 113° |
| 2026-04-20 12:19 | -6.55731 | 107.42863 | 20899 ft | 204 kts | 113° |
| 2026-04-20 12:19 | -6.56306 | 107.44172 | 21122 ft | 205 kts | 113° |
| 2026-04-20 12:19 | -6.56752 | 107.45544 | 21341 ft | 206 kts | 99° |
| 2026-04-20 12:19 | -6.56930 | 107.46968 | 21555 ft | 206 kts | 96° |
| 2026-04-20 12:20 | -6.57089 | 107.48402 | 21764 ft | 207 kts | 96° |
| 2026-04-20 12:20 | -6.57253 | 107.49834 | 21968 ft | 207 kts | 96° |
| 2026-04-20 12:20 | -6.57420 | 107.51263 | 22169 ft | 208 kts | 96° |
| 2026-04-20 12:20 | -6.57593 | 107.52725 | 22396 ft | 210 kts | 96° |
| 2026-04-20 12:21 | -6.57764 | 107.54170 | 22658 ft | 210 kts | 96° |
| 2026-04-20 12:21 | -6.57939 | 107.55634 | 22935 ft | 210 kts | 96° |
| 2026-04-20 12:21 | -6.58111 | 107.57079 | 23194 ft | 210 kts | 96° |
| 2026-04-20 12:21 | -6.58286 | 107.58546 | 23453 ft | 210 kts | 96° |
| 2026-04-20 12:22 | -6.58458 | 107.59991 | 23694 ft | 210 kts | 96° |
| 2026-04-20 12:22 | -6.58633 | 107.61450 | 23927 ft | 211 kts | 96° |
| 2026-04-20 12:22 | -6.58806 | 107.62903 | 24169 ft | 210 kts | 96° |
| 2026-04-20 12:22 | -6.58982 | 107.64377 | 24408 ft | 210 kts | 95° |
| 2026-04-20 12:23 | -6.59156 | 107.65834 | 24641 ft | 210 kts | 96° |
| 2026-04-20 12:23 | -6.59329 | 107.67287 | 24868 ft | 210 kts | 95° |
| 2026-04-20 12:23 | -6.59503 | 107.68749 | 24948 ft | 218 kts | 95° |
| 2026-04-20 12:23 | -6.59689 | 107.70304 | 24967 ft | 228 kts | 96° |
| 2026-04-20 12:24 | -6.59881 | 107.71918 | 24973 ft | 239 kts | 96° |
| 2026-04-20 12:24 | -6.60084 | 107.73618 | 24968 ft | 248 kts | 96° |
| 2026-04-20 12:24 | -6.60294 | 107.75377 | 24960 ft | 257 kts | 96° |
| 2026-04-20 12:24 | -6.60508 | 107.77176 | 24958 ft | 265 kts | 96° |
| 2026-04-20 12:25 | -6.60732 | 107.79047 | 24953 ft | 271 kts | 96° |
| 2026-04-20 12:25 | -6.60958 | 107.80946 | 24956 ft | 277 kts | 96° |
| 2026-04-20 12:25 | -6.61190 | 107.82895 | 24957 ft | 282 kts | 96° |
| 2026-04-20 12:25 | -6.61425 | 107.84866 | 24953 ft | 287 kts | 96° |
| 2026-04-20 12:26 | -6.61663 | 107.86871 | 24951 ft | 291 kts | 96° |
| 2026-04-20 12:26 | -6.61902 | 107.88884 | 24947 ft | 295 kts | 96° |
| 2026-04-20 12:26 | -6.62149 | 107.90958 | 24948 ft | 298 kts | 96° |
| 2026-04-20 12:26 | -6.62393 | 107.93014 | 24946 ft | 300 kts | 96° |
| 2026-04-20 12:27 | -6.62642 | 107.95122 | 24947 ft | 303 kts | 96° |
| 2026-04-20 12:27 | -6.62890 | 107.97219 | 24948 ft | 304 kts | 96° |
| 2026-04-20 12:27 | -6.63139 | 107.99326 | 24946 ft | 306 kts | 96° |
| 2026-04-20 12:27 | -6.63389 | 108.01444 | 24944 ft | 307 kts | 96° |
| 2026-04-20 12:28 | -6.63641 | 108.03578 | 24936 ft | 309 kts | 96° |
| 2026-04-20 12:28 | -6.63895 | 108.05727 | 24926 ft | 310 kts | 96° |
| 2026-04-20 12:28 | -6.64151 | 108.07893 | 24924 ft | 311 kts | 96° |
| 2026-04-20 12:28 | -6.64407 | 108.10061 | 24921 ft | 311 kts | 96° |
| 2026-04-20 12:29 | -6.64659 | 108.12199 | 24917 ft | 312 kts | 96° |
| 2026-04-20 12:29 | -6.64915 | 108.14378 | 24910 ft | 312 kts | 96° |
| 2026-04-20 12:29 | -6.65170 | 108.16534 | 24904 ft | 313 kts | 96° |
| 2026-04-20 12:29 | -6.65427 | 108.18724 | 24906 ft | 313 kts | 96° |
| 2026-04-20 12:30 | -6.65682 | 108.20888 | 24902 ft | 313 kts | 96° |
| 2026-04-20 12:30 | -6.65938 | 108.23064 | 24900 ft | 313 kts | 96° |
| 2026-04-20 12:30 | -6.66193 | 108.25234 | 24901 ft | 313 kts | 96° |
| 2026-04-20 12:30 | -6.66448 | 108.27402 | 24901 ft | 314 kts | 96° |
| 2026-04-20 12:31 | -6.66706 | 108.29591 | 24901 ft | 314 kts | 96° |
| 2026-04-20 12:31 | -6.66958 | 108.31737 | 24898 ft | 314 kts | 96° |
| 2026-04-20 12:31 | -6.67216 | 108.33931 | 24895 ft | 314 kts | 96° |
| 2026-04-20 12:31 | -6.67472 | 108.36114 | 24896 ft | 314 kts | 95° |
| 2026-04-20 12:32 | -6.67726 | 108.38278 | 24898 ft | 314 kts | 95° |
| 2026-04-20 12:32 | -6.67984 | 108.40477 | 24896 ft | 314 kts | 96° |
| 2026-04-20 12:32 | -6.68240 | 108.42660 | 24897 ft | 314 kts | 96° |
| 2026-04-20 12:32 | -6.68495 | 108.44836 | 24894 ft | 314 kts | 95° |
| 2026-04-20 12:33 | -6.68750 | 108.47013 | 24900 ft | 314 kts | 96° |
| 2026-04-20 12:33 | -6.69005 | 108.49191 | 24892 ft | 315 kts | 96° |
| 2026-04-20 12:33 | -6.69261 | 108.51373 | 24888 ft | 315 kts | 95° |
| 2026-04-20 12:33 | -6.69515 | 108.53549 | 24892 ft | 315 kts | 96° |
| 2026-04-20 12:34 | -6.69771 | 108.55733 | 24893 ft | 315 kts | 96° |
| 2026-04-20 12:34 | -6.70102 | 108.57918 | 24887 ft | 315 kts | 98° |
| 2026-04-20 12:34 | -6.70455 | 108.60079 | 24883 ft | 315 kts | 98° |
| 2026-04-20 12:34 | -6.70805 | 108.62251 | 24883 ft | 315 kts | 98° |
| 2026-04-20 12:35 | -6.71156 | 108.64432 | 24879 ft | 315 kts | 98° |
| 2026-04-20 12:35 | -6.71506 | 108.66614 | 24878 ft | 315 kts | 98° |
| 2026-04-20 12:35 | -6.71855 | 108.68790 | 24877 ft | 315 kts | 98° |
| 2026-04-20 12:35 | -6.72206 | 108.70979 | 24876 ft | 315 kts | 98° |
| 2026-04-20 12:36 | -6.72554 | 108.73152 | 24872 ft | 315 kts | 98° |
| 2026-04-20 12:36 | -6.72902 | 108.75327 | 24873 ft | 315 kts | 98° |
| 2026-04-20 12:36 | -6.73249 | 108.77492 | 24870 ft | 315 kts | 98° |
| 2026-04-20 12:36 | -6.73598 | 108.79675 | 24865 ft | 315 kts | 98° |
| 2026-04-20 12:37 | -6.73945 | 108.81841 | 24863 ft | 315 kts | 98° |
| 2026-04-20 12:37 | -6.74291 | 108.84002 | 24861 ft | 315 kts | 98° |
| 2026-04-20 12:37 | -6.74640 | 108.86188 | 24863 ft | 315 kts | 98° |
| 2026-04-20 12:37 | -6.74987 | 108.88356 | 24866 ft | 314 kts | 98° |
| 2026-04-20 12:38 | -6.75331 | 108.90512 | 24873 ft | 314 kts | 97° |
| 2026-04-20 12:38 | -6.75679 | 108.92689 | 24871 ft | 314 kts | 98° |
| 2026-04-20 12:38 | -6.76025 | 108.94855 | 24873 ft | 314 kts | 97° |
| 2026-04-20 12:38 | -6.76367 | 108.96999 | 24869 ft | 314 kts | 98° |
| 2026-04-20 12:39 | -6.77059 | 109.01336 | 24872 ft | 314 kts | 98° |
| 2026-04-20 12:39 | -6.77406 | 109.03507 | 24869 ft | 314 kts | 98° |
| 2026-04-20 12:39 | -6.77752 | 109.05675 | 24864 ft | 314 kts | 98° |
| 2026-04-20 12:40 | -6.78099 | 109.07854 | 24798 ft | 317 kts | 98° |
| 2026-04-20 12:40 | -6.78449 | 109.10045 | 24413 ft | 322 kts | 98° |
| 2026-04-20 12:40 | -6.78804 | 109.12268 | 24045 ft | 318 kts | 97° |
| 2026-04-20 12:40 | -6.79140 | 109.14430 | 23644 ft | 315 kts | 96° |
| 2026-04-20 12:41 | -6.79445 | 109.16608 | 23227 ft | 313 kts | 96° |
| 2026-04-20 12:41 | -6.79749 | 109.18765 | 22796 ft | 311 kts | 96° |
| 2026-04-20 12:41 | -6.80051 | 109.20901 | 22369 ft | 307 kts | 97° |
| 2026-04-20 12:41 | -6.80351 | 109.23029 | 21949 ft | 304 kts | 97° |
| 2026-04-20 12:42 | -6.80645 | 109.25113 | 21530 ft | 301 kts | 97° |
| 2026-04-20 12:42 | -6.80939 | 109.27191 | 21109 ft | 298 kts | 97° |
| 2026-04-20 12:42 | -6.81227 | 109.29230 | 20696 ft | 296 kts | 97° |
| 2026-04-20 12:42 | -6.81513 | 109.31255 | 20286 ft | 294 kts | 97° |
| 2026-04-20 12:43 | -6.81797 | 109.33275 | 19864 ft | 291 kts | 97° |
| 2026-04-20 12:43 | -6.82082 | 109.35291 | 19444 ft | 289 kts | 97° |
| 2026-04-20 12:43 | -6.82361 | 109.37270 | 19035 ft | 284 kts | 97° |
| 2026-04-20 12:43 | -6.82637 | 109.39231 | 18633 ft | 280 kts | 97° |
| 2026-04-20 12:44 | -6.82905 | 109.41129 | 18240 ft | 275 kts | 97° |
| 2026-04-20 12:44 | -6.83170 | 109.43012 | 17853 ft | 271 kts | 97° |
| 2026-04-20 12:44 | -6.83431 | 109.44867 | 17499 ft | 266 kts | 97° |
| 2026-04-20 12:44 | -6.83691 | 109.46711 | 17141 ft | 261 kts | 97° |
| 2026-04-20 12:45 | -6.83944 | 109.48507 | 16781 ft | 257 kts | 97° |
| 2026-04-20 12:45 | -6.84192 | 109.50275 | 16429 ft | 255 kts | 97° |
| 2026-04-20 12:45 | -6.84440 | 109.52032 | 16078 ft | 253 kts | 97° |
| 2026-04-20 12:45 | -6.84684 | 109.53771 | 15726 ft | 252 kts | 97° |
| 2026-04-20 12:46 | -6.84926 | 109.55490 | 15373 ft | 250 kts | 97° |
| 2026-04-20 12:46 | -6.85168 | 109.57214 | 15018 ft | 249 kts | 97° |
| 2026-04-20 12:46 | -6.85410 | 109.58935 | 14661 ft | 248 kts | 97° |
| 2026-04-20 12:46 | -6.85653 | 109.60662 | 14303 ft | 247 kts | 97° |
| 2026-04-20 12:47 | -6.85889 | 109.62346 | 13966 ft | 245 kts | 97° |
| 2026-04-20 12:47 | -6.86127 | 109.64041 | 13657 ft | 244 kts | 96° |
| 2026-04-20 12:47 | -6.86362 | 109.65718 | 13356 ft | 243 kts | 96° |
| 2026-04-20 12:47 | -6.86600 | 109.67409 | 13050 ft | 242 kts | 96° |
| 2026-04-20 12:48 | -6.86835 | 109.69088 | 12716 ft | 243 kts | 96° |
| 2026-04-20 12:48 | -6.87069 | 109.70756 | 12369 ft | 244 kts | 96° |
| 2026-04-20 12:48 | -6.87308 | 109.72463 | 12018 ft | 245 kts | 96° |
| 2026-04-20 12:48 | -6.87546 | 109.74159 | 11666 ft | 246 kts | 96° |
| 2026-04-20 12:49 | -6.87785 | 109.75864 | 11312 ft | 247 kts | 97° |
| 2026-04-20 12:49 | -6.88021 | 109.77551 | 10967 ft | 247 kts | 96° |
| 2026-04-20 12:49 | -6.88264 | 109.79282 | 10612 ft | 247 kts | 96° |
| 2026-04-20 12:49 | -6.88499 | 109.80984 | 10259 ft | 248 kts | 97° |
| 2026-04-20 12:50 | -6.88756 | 109.82702 | 9931 ft | 247 kts | 97° |
| 2026-04-20 12:50 | -6.89008 | 109.84391 | 9654 ft | 244 kts | 97° |
| 2026-04-20 12:50 | -6.89273 | 109.86070 | 9368 ft | 242 kts | 99° |
| 2026-04-20 12:50 | -6.89570 | 109.87727 | 9128 ft | 241 kts | 99° |
| 2026-04-20 12:51 | -6.89863 | 109.89371 | 8895 ft | 240 kts | 99° |
| 2026-04-20 12:51 | -6.90157 | 109.91027 | 8746 ft | 237 kts | 99° |
| 2026-04-20 12:51 | -6.90441 | 109.92631 | 8605 ft | 234 kts | 99° |
| 2026-04-20 12:51 | -6.90726 | 109.94244 | 8484 ft | 232 kts | 99° |
| 2026-04-20 12:52 | -6.91007 | 109.95835 | 8367 ft | 233 kts | 99° |
| 2026-04-20 12:52 | -6.91292 | 109.97443 | 8248 ft | 234 kts | 99° |
| 2026-04-20 12:52 | -6.91579 | 109.99065 | 8130 ft | 234 kts | 99° |
| 2026-04-20 12:52 | -6.91866 | 110.00687 | 8011 ft | 235 kts | 99° |
| 2026-04-20 12:53 | -6.92152 | 110.02303 | 7893 ft | 236 kts | 99° |
| 2026-04-20 12:53 | -6.92440 | 110.03937 | 7771 ft | 236 kts | 99° |
| 2026-04-20 12:53 | -6.92725 | 110.05549 | 7658 ft | 237 kts | 99° |
| 2026-04-20 12:53 | -6.93016 | 110.07196 | 7539 ft | 237 kts | 99° |
| 2026-04-20 12:54 | -6.93304 | 110.08825 | 7415 ft | 238 kts | 99° |
| 2026-04-20 12:54 | -6.93593 | 110.10459 | 7258 ft | 238 kts | 99° |
| 2026-04-20 12:54 | -6.93884 | 110.12106 | 7079 ft | 238 kts | 100° |
| 2026-04-20 12:54 | -6.94173 | 110.13741 | 6908 ft | 237 kts | 99° |
| 2026-04-20 12:55 | -6.94460 | 110.15367 | 6740 ft | 237 kts | 100° |
| 2026-04-20 12:55 | -6.94747 | 110.16994 | 6567 ft | 236 kts | 100° |
| 2026-04-20 12:55 | -6.95035 | 110.18632 | 6401 ft | 236 kts | 100° |
| 2026-04-20 12:55 | -6.95317 | 110.20248 | 6232 ft | 236 kts | 100° |
| 2026-04-20 12:56 | -6.95601 | 110.21883 | 6057 ft | 236 kts | 100° |
| 2026-04-20 12:56 | -6.95879 | 110.23497 | 5892 ft | 236 kts | 100° |
| 2026-04-20 12:56 | -6.96159 | 110.25131 | 5730 ft | 235 kts | 100° |
| 2026-04-20 12:56 | -6.96435 | 110.26746 | 5572 ft | 235 kts | 100° |
| 2026-04-20 12:57 | -6.96708 | 110.28362 | 5414 ft | 235 kts | 100° |
| 2026-04-20 12:57 | -6.96982 | 110.29993 | 5254 ft | 235 kts | 100° |
| 2026-04-20 12:57 | -6.97252 | 110.31606 | 5098 ft | 234 kts | 99° |
| 2026-04-20 12:57 | -6.97519 | 110.33218 | 4942 ft | 234 kts | 99° |
| 2026-04-20 12:58 | -6.97786 | 110.34839 | 4786 ft | 235 kts | 99° |
| 2026-04-20 12:58 | -6.98051 | 110.36461 | 4629 ft | 235 kts | 99° |
| 2026-04-20 12:58 | -6.98315 | 110.38086 | 4476 ft | 235 kts | 99° |
| 2026-04-20 12:58 | -6.98577 | 110.39707 | 4325 ft | 235 kts | 99° |
| 2026-04-20 12:59 | -6.98838 | 110.41339 | 4173 ft | 236 kts | 99° |
| 2026-04-20 12:59 | -6.99095 | 110.42959 | 4026 ft | 235 kts | 99° |
| 2026-04-20 12:59 | -6.99352 | 110.44589 | 3876 ft | 233 kts | 99° |
| 2026-04-20 12:59 | -6.99600 | 110.46159 | 3723 ft | 222 kts | 99° |
| 2026-04-20 13:00 | -6.99837 | 110.47649 | 3526 ft | 211 kts | 99° |
| 2026-04-20 13:00 | -7.00067 | 110.49088 | 3318 ft | 203 kts | 99° |
| 2026-04-20 13:00 | -7.00288 | 110.50455 | 3103 ft | 196 kts | 99° |
| 2026-04-20 13:00 | -7.00503 | 110.51781 | 3034 ft | 187 kts | 99° |
| 2026-04-20 13:01 | -7.00711 | 110.53059 | 3032 ft | 185 kts | 100° |
| 2026-04-20 13:01 | -7.01293 | 110.54182 | 3038 ft | 185 kts | 137° |
| 2026-04-20 13:01 | -7.02478 | 110.54657 | 3047 ft | 187 kts | 178° |
| 2026-04-20 13:01 | -7.03694 | 110.54243 | 3058 ft | 189 kts | 218° |
| 2026-04-20 13:02 | -7.04589 | 110.53256 | 3042 ft | 191 kts | 226° |
| 2026-04-20 13:02 | -7.05546 | 110.52322 | 2947 ft | 191 kts | 221° |
| 2026-04-20 13:02 | -7.06533 | 110.51437 | 2849 ft | 189 kts | 224° |
| 2026-04-20 13:02 | -7.07100 | 110.50257 | 2748 ft | 187 kts | 266° |
| 2026-04-20 13:03 | -7.06793 | 110.49013 | 2673 ft | 185 kts | 304° |
| 2026-04-20 13:03 | -7.06021 | 110.47993 | 2558 ft | 187 kts | 310° |
| 2026-04-20 13:03 | -7.05179 | 110.46966 | 2342 ft | 189 kts | 311° |
| 2026-04-20 13:03 | -7.04335 | 110.45948 | 2130 ft | 189 kts | 311° |
| 2026-04-20 13:04 | -7.03492 | 110.44941 | 1909 ft | 188 kts | 311° |
| 2026-04-20 13:04 | -7.02698 | 110.43999 | 1685 ft | 160 kts | 312° |
| 2026-04-20 13:04 | -7.02014 | 110.43189 | 1429 ft | 148 kts | 311° |
| 2026-04-20 13:04 | -7.01359 | 110.42413 | 1170 ft | 142 kts | 311° |
| 2026-04-20 13:05 | -7.00723 | 110.41659 | 914 ft | 139 kts | 311° |
| 2026-04-20 13:05 | -7.00115 | 110.40939 | 700 ft | 133 kts | 311° |
| 2026-04-20 13:05 | -6.99538 | 110.40256 | 550 ft | 122 kts | 309° |
| 2026-04-20 13:05 | -6.98991 | 110.39603 | 423 ft | 122 kts | 310° |
| 2026-04-20 13:06 | -6.98442 | 110.38954 | 278 ft | 121 kts | 309° |
| 2026-04-20 13:06 | -6.97898 | 110.38306 | 125 ft | 120 kts | 310° |
| 2026-04-20 13:06 | -6.97372 | 110.37684 | 49 ft | 106 kts | 309° |
| 2026-04-20 13:06 | -6.97006 | 110.37251 | 48 ft | 61 kts | 310° |
| 2026-04-20 13:07 | -6.96833 | 110.37051 | 48 ft | 10 kts | 328° |
| 2026-04-20 13:07 | -6.96774 | 110.37066 | 48 ft | 10 kts | 40° |
| 2026-04-20 13:07 | -6.96712 | 110.37117 | 48 ft | 12 kts | 41° |
| 2026-04-20 13:07 | -6.96648 | 110.37173 | 48 ft | 15 kts | 39° |
| 2026-04-20 13:08 | -6.96629 | 110.37239 | 48 ft | 6 kts | 89° |
| 2026-04-20 13:08 | -6.96598 | 110.37272 | 48 ft | 7 kts | 40° |
| 2026-04-20 13:08 | -6.96579 | 110.37288 | 48 ft | 0 kts | 40° |
| 2026-04-20 13:08 | -6.96572 | 110.37294 | 48 ft | 0 kts | 40° |